sensor_id;sensor_type;location;lat;lon;timestamp;temperature;humidity
19622;DHT22;9958;33.196;-97.114;2023-02-15T00:00:18;19.30;56.50
19622;DHT22;9958;33.196;-97.114;2023-02-15T00:02:47;19.20;56.80
19622;DHT22;9958;33.196;-97.114;2023-02-15T00:05:15;19.10;56.70
19622;DHT22;9958;33.196;-97.114;2023-02-15T00:07:43;19.00;56.90
19622;DHT22;9958;33.196;-97.114;2023-02-15T00:10:12;19.00;56.90
19622;DHT22;9958;33.196;-97.114;2023-02-15T00:12:40;18.90;56.90
19622;DHT22;9958;33.196;-97.114;2023-02-15T00:15:10;18.80;57.10
19622;DHT22;9958;33.196;-97.114;2023-02-15T00:17:39;18.80;57.30
19622;DHT22;9958;33.196;-97.114;2023-02-15T00:20:08;18.70;57.50
19622;DHT22;9958;33.196;-97.114;2023-02-15T00:22:37;18.60;57.40
19622;DHT22;9958;33.196;-97.114;2023-02-15T00:25:06;18.50;57.60
19622;DHT22;9958;33.196;-97.114;2023-02-15T00:27:34;18.50;57.40
19622;DHT22;9958;33.196;-97.114;2023-02-15T00:30:02;18.40;57.80
19622;DHT22;9958;33.196;-97.114;2023-02-15T00:32:34;18.30;57.70
19622;DHT22;9958;33.196;-97.114;2023-02-15T00:35:02;18.20;57.80
19622;DHT22;9958;33.196;-97.114;2023-02-15T00:37:30;18.20;58.20
19622;DHT22;9958;33.196;-97.114;2023-02-15T00:40:01;18.10;58.20
19622;DHT22;9958;33.196;-97.114;2023-02-15T00:42:30;18.10;58.30
19622;DHT22;9958;33.196;-97.114;2023-02-15T00:44:58;18.10;58.30
19622;DHT22;9958;33.196;-97.114;2023-02-15T00:47:27;18.00;58.30
19622;DHT22;9958;33.196;-97.114;2023-02-15T00:49:56;18.00;58.40
19622;DHT22;9958;33.196;-97.114;2023-02-15T00:52:25;17.90;58.70
19622;DHT22;9958;33.196;-97.114;2023-02-15T00:54:53;17.90;59.00
19622;DHT22;9958;33.196;-97.114;2023-02-15T00:57:21;17.80;59.10
19622;DHT22;9958;33.196;-97.114;2023-02-15T00:59:50;17.80;59.10
19622;DHT22;9958;33.196;-97.114;2023-02-15T01:02:18;17.70;59.70
19622;DHT22;9958;33.196;-97.114;2023-02-15T01:04:46;17.70;59.90
19622;DHT22;9958;33.196;-97.114;2023-02-15T01:07:16;17.60;59.80
19622;DHT22;9958;33.196;-97.114;2023-02-15T01:09:45;17.50;59.70
19622;DHT22;9958;33.196;-97.114;2023-02-15T01:12:13;17.50;59.60
19622;DHT22;9958;33.196;-97.114;2023-02-15T01:14:41;17.40;59.20
19622;DHT22;9958;33.196;-97.114;2023-02-15T01:17:10;17.40;59.30
19622;DHT22;9958;33.196;-97.114;2023-02-15T01:19:38;17.30;59.40
19622;DHT22;9958;33.196;-97.114;2023-02-15T01:22:07;17.30;59.80
19622;DHT22;9958;33.196;-97.114;2023-02-15T01:24:36;17.20;60.10
19622;DHT22;9958;33.196;-97.114;2023-02-15T01:27:05;17.10;60.00
19622;DHT22;9958;33.196;-97.114;2023-02-15T01:29:33;17.10;60.60
19622;DHT22;9958;33.196;-97.114;2023-02-15T01:32:02;17.00;60.30
19622;DHT22;9958;33.196;-97.114;2023-02-15T01:34:30;17.00;61.00
19622;DHT22;9958;33.196;-97.114;2023-02-15T01:36:58;16.90;61.50
19622;DHT22;9958;33.196;-97.114;2023-02-15T01:39:27;16.80;61.80
19622;DHT22;9958;33.196;-97.114;2023-02-15T01:41:57;16.70;61.80
19622;DHT22;9958;33.196;-97.114;2023-02-15T01:44:48;16.70;62.20
19622;DHT22;9958;33.196;-97.114;2023-02-15T01:47:20;16.60;62.40
19622;DHT22;9958;33.196;-97.114;2023-02-15T01:49:54;16.60;62.20
19622;DHT22;9958;33.196;-97.114;2023-02-15T01:52:26;16.50;62.10
19622;DHT22;9958;33.196;-97.114;2023-02-15T01:54:54;16.50;62.90
19622;DHT22;9958;33.196;-97.114;2023-02-15T01:57:26;16.50;63.50
19622;DHT22;9958;33.196;-97.114;2023-02-15T01:59:57;16.50;63.50
19622;DHT22;9958;33.196;-97.114;2023-02-15T02:02:27;16.40;63.40
19622;DHT22;9958;33.196;-97.114;2023-02-15T02:04:59;16.40;63.40
19622;DHT22;9958;33.196;-97.114;2023-02-15T02:07:31;16.40;63.40
19622;DHT22;9958;33.196;-97.114;2023-02-15T02:10:01;16.30;63.30
19622;DHT22;9958;33.196;-97.114;2023-02-15T02:12:31;16.30;64.00
19622;DHT22;9958;33.196;-97.114;2023-02-15T02:15:00;16.30;64.20
19622;DHT22;9958;33.196;-97.114;2023-02-15T02:17:37;16.20;64.30
19622;DHT22;9958;33.196;-97.114;2023-02-15T02:23:23;16.10;65.20
19622;DHT22;9958;33.196;-97.114;2023-02-15T02:29:22;16.00;65.10
19622;DHT22;9958;33.196;-97.114;2023-02-15T02:32:07;16.00;65.30
19622;DHT22;9958;33.196;-97.114;2023-02-15T02:34:44;15.90;65.90
19622;DHT22;9958;33.196;-97.114;2023-02-15T02:37:20;15.90;66.20
19622;DHT22;9958;33.196;-97.114;2023-02-15T02:39:56;15.90;67.00
19622;DHT22;9958;33.196;-97.114;2023-02-15T02:42:34;15.80;66.40
19622;DHT22;9958;33.196;-97.114;2023-02-15T02:45:06;15.80;66.70
19622;DHT22;9958;33.196;-97.114;2023-02-15T02:47:40;15.70;66.90
19622;DHT22;9958;33.196;-97.114;2023-02-15T02:50:15;15.70;67.40
19622;DHT22;9958;33.196;-97.114;2023-02-15T02:52:45;15.60;68.00
19622;DHT22;9958;33.196;-97.114;2023-02-15T02:55:17;15.50;68.50
19622;DHT22;9958;33.196;-97.114;2023-02-15T02:57:53;15.50;68.50
19622;DHT22;9958;33.196;-97.114;2023-02-15T03:00:23;15.40;68.90
19622;DHT22;9958;33.196;-97.114;2023-02-15T03:02:56;15.30;69.20
19622;DHT22;9958;33.196;-97.114;2023-02-15T03:05:34;15.30;69.80
19622;DHT22;9958;33.196;-97.114;2023-02-15T03:08:04;15.20;69.80
19622;DHT22;9958;33.196;-97.114;2023-02-15T03:10:37;15.10;69.80
19622;DHT22;9958;33.196;-97.114;2023-02-15T03:13:08;15.10;69.90
19622;DHT22;9958;33.196;-97.114;2023-02-15T03:15:38;15.00;70.30
19622;DHT22;9958;33.196;-97.114;2023-02-15T03:18:28;14.90;70.10
19622;DHT22;9958;33.196;-97.114;2023-02-15T03:21:00;14.90;70.30
19622;DHT22;9958;33.196;-97.114;2023-02-15T03:23:31;14.80;70.30
19622;DHT22;9958;33.196;-97.114;2023-02-15T03:26:03;14.80;70.90
19622;DHT22;9958;33.196;-97.114;2023-02-15T03:28:35;14.80;70.60
19622;DHT22;9958;33.196;-97.114;2023-02-15T03:31:06;14.70;70.40
19622;DHT22;9958;33.196;-97.114;2023-02-15T03:33:37;14.70;70.60
19622;DHT22;9958;33.196;-97.114;2023-02-15T03:36:14;14.60;71.00
19622;DHT22;9958;33.196;-97.114;2023-02-15T03:38:52;14.60;71.30
19622;DHT22;9958;33.196;-97.114;2023-02-15T03:41:27;14.60;71.10
19622;DHT22;9958;33.196;-97.114;2023-02-15T03:44:01;14.50;71.40
19622;DHT22;9958;33.196;-97.114;2023-02-15T03:46:35;14.50;71.40
19622;DHT22;9958;33.196;-97.114;2023-02-15T03:49:09;14.50;71.50
19622;DHT22;9958;33.196;-97.114;2023-02-15T03:51:43;14.40;71.80
19622;DHT22;9958;33.196;-97.114;2023-02-15T03:54:14;14.40;72.00
19622;DHT22;9958;33.196;-97.114;2023-02-15T03:57:04;14.40;72.10
19622;DHT22;9958;33.196;-97.114;2023-02-15T03:59:51;14.40;71.70
19622;DHT22;9958;33.196;-97.114;2023-02-15T04:03:17;14.30;71.90
19622;DHT22;9958;33.196;-97.114;2023-02-15T04:05:49;14.30;72.20
19622;DHT22;9958;33.196;-97.114;2023-02-15T04:08:18;14.30;72.00
19622;DHT22;9958;33.196;-97.114;2023-02-15T04:11:07;14.20;72.00
19622;DHT22;9958;33.196;-97.114;2023-02-15T04:13:34;14.20;72.30
19622;DHT22;9958;33.196;-97.114;2023-02-15T04:16:02;14.20;72.60
19622;DHT22;9958;33.196;-97.114;2023-02-15T04:18:30;14.20;73.10
19622;DHT22;9958;33.196;-97.114;2023-02-15T04:21:16;14.10;72.90
19622;DHT22;9958;33.196;-97.114;2023-02-15T04:24:02;14.10;72.70
19622;DHT22;9958;33.196;-97.114;2023-02-15T04:26:47;14.10;72.90
19622;DHT22;9958;33.196;-97.114;2023-02-15T04:29:19;14.10;72.90
19622;DHT22;9958;33.196;-97.114;2023-02-15T04:31:48;14.10;72.90
19622;DHT22;9958;33.196;-97.114;2023-02-15T04:34:17;14.00;72.80
19622;DHT22;9958;33.196;-97.114;2023-02-15T04:36:45;14.00;72.80
19622;DHT22;9958;33.196;-97.114;2023-02-15T04:39:16;14.00;72.80
19622;DHT22;9958;33.196;-97.114;2023-02-15T04:41:45;14.00;73.20
19622;DHT22;9958;33.196;-97.114;2023-02-15T04:44:14;13.90;73.20
19622;DHT22;9958;33.196;-97.114;2023-02-15T04:46:42;13.90;73.10
19622;DHT22;9958;33.196;-97.114;2023-02-15T04:49:11;13.90;73.50
19622;DHT22;9958;33.196;-97.114;2023-02-15T04:51:39;13.90;74.00
19622;DHT22;9958;33.196;-97.114;2023-02-15T04:54:07;13.80;74.30
19622;DHT22;9958;33.196;-97.114;2023-02-15T04:56:37;13.80;74.40
19622;DHT22;9958;33.196;-97.114;2023-02-15T04:59:06;13.70;74.40
19622;DHT22;9958;33.196;-97.114;2023-02-15T05:01:34;13.70;74.40
19622;DHT22;9958;33.196;-97.114;2023-02-15T05:04:02;13.70;74.70
19622;DHT22;9958;33.196;-97.114;2023-02-15T05:06:31;13.60;74.80
19622;DHT22;9958;33.196;-97.114;2023-02-15T05:08:59;13.60;75.00
19622;DHT22;9958;33.196;-97.114;2023-02-15T05:11:28;13.60;74.70
19622;DHT22;9958;33.196;-97.114;2023-02-15T05:13:58;13.50;74.80
19622;DHT22;9958;33.196;-97.114;2023-02-15T05:16:26;13.50;74.90
19622;DHT22;9958;33.196;-97.114;2023-02-15T05:18:55;13.50;75.20
19622;DHT22;9958;33.196;-97.114;2023-02-15T05:21:23;13.50;75.20
19622;DHT22;9958;33.196;-97.114;2023-02-15T05:23:52;13.50;75.40
19622;DHT22;9958;33.196;-97.114;2023-02-15T05:26:21;13.40;75.50
19622;DHT22;9958;33.196;-97.114;2023-02-15T05:29:08;13.40;75.70
19622;DHT22;9958;33.196;-97.114;2023-02-15T05:31:37;13.30;75.60
19622;DHT22;9958;33.196;-97.114;2023-02-15T05:34:06;13.30;76.10
19622;DHT22;9958;33.196;-97.114;2023-02-15T05:36:34;13.30;76.30
19622;DHT22;9958;33.196;-97.114;2023-02-15T05:39:02;13.20;76.70
19622;DHT22;9958;33.196;-97.114;2023-02-15T05:41:32;13.20;76.80
19622;DHT22;9958;33.196;-97.114;2023-02-15T05:44:00;13.20;76.90
19622;DHT22;9958;33.196;-97.114;2023-02-15T05:46:30;13.20;76.80
19622;DHT22;9958;33.196;-97.114;2023-02-15T05:48:58;13.10;76.70
19622;DHT22;9958;33.196;-97.114;2023-02-15T05:51:27;13.10;76.30
19622;DHT22;9958;33.196;-97.114;2023-02-15T05:53:55;13.10;76.60
19622;DHT22;9958;33.196;-97.114;2023-02-15T05:56:23;13.10;76.80
19622;DHT22;9958;33.196;-97.114;2023-02-15T05:58:53;13.10;76.90
19622;DHT22;9958;33.196;-97.114;2023-02-15T06:01:22;13.00;77.10
19622;DHT22;9958;33.196;-97.114;2023-02-15T06:03:52;13.00;76.80
19622;DHT22;9958;33.196;-97.114;2023-02-15T06:06:20;13.00;76.80
19622;DHT22;9958;33.196;-97.114;2023-02-15T06:08:49;13.00;76.60
19622;DHT22;9958;33.196;-97.114;2023-02-15T06:11:17;13.00;76.30
19622;DHT22;9958;33.196;-97.114;2023-02-15T06:13:45;13.00;75.80
19622;DHT22;9958;33.196;-97.114;2023-02-15T06:16:14;13.00;75.90
19622;DHT22;9958;33.196;-97.114;2023-02-15T06:18:43;13.00;75.70
19622;DHT22;9958;33.196;-97.114;2023-02-15T06:21:13;13.00;75.70
19622;DHT22;9958;33.196;-97.114;2023-02-15T06:23:41;13.00;75.10
19622;DHT22;9958;33.196;-97.114;2023-02-15T06:26:09;13.00;75.00
19622;DHT22;9958;33.196;-97.114;2023-02-15T06:28:37;13.00;74.40
19622;DHT22;9958;33.196;-97.114;2023-02-15T06:31:07;13.00;74.00
19622;DHT22;9958;33.196;-97.114;2023-02-15T06:33:35;13.00;73.60
19622;DHT22;9958;33.196;-97.114;2023-02-15T06:36:04;13.00;73.70
19622;DHT22;9958;33.196;-97.114;2023-02-15T06:38:34;13.00;73.10
19622;DHT22;9958;33.196;-97.114;2023-02-15T06:41:02;13.00;72.80
19622;DHT22;9958;33.196;-97.114;2023-02-15T06:43:31;13.10;72.80
19622;DHT22;9958;33.196;-97.114;2023-02-15T06:46:00;13.10;72.60
19622;DHT22;9958;33.196;-97.114;2023-02-15T06:48:28;13.10;72.40
19622;DHT22;9958;33.196;-97.114;2023-02-15T06:50:57;13.10;72.60
19622;DHT22;9958;33.196;-97.114;2023-02-15T06:53:25;13.10;72.30
19622;DHT22;9958;33.196;-97.114;2023-02-15T06:56:00;13.10;72.40
19622;DHT22;9958;33.196;-97.114;2023-02-15T06:58:32;13.10;72.60
19622;DHT22;9958;33.196;-97.114;2023-02-15T07:01:01;13.10;72.50
19622;DHT22;9958;33.196;-97.114;2023-02-15T07:03:29;13.10;72.40
19622;DHT22;9958;33.196;-97.114;2023-02-15T07:05:58;13.00;72.30
19622;DHT22;9958;33.196;-97.114;2023-02-15T07:08:28;13.00;72.00
19622;DHT22;9958;33.196;-97.114;2023-02-15T07:10:58;13.00;71.80
19622;DHT22;9958;33.196;-97.114;2023-02-15T07:13:46;13.00;71.80
19622;DHT22;9958;33.196;-97.114;2023-02-15T07:16:14;13.00;71.50
19622;DHT22;9958;33.196;-97.114;2023-02-15T07:18:42;13.00;71.80
19622;DHT22;9958;33.196;-97.114;2023-02-15T07:21:11;13.00;71.70
19622;DHT22;9958;33.196;-97.114;2023-02-15T07:23:39;13.00;71.30
19622;DHT22;9958;33.196;-97.114;2023-02-15T07:26:10;13.00;71.20
19622;DHT22;9958;33.196;-97.114;2023-02-15T07:28:38;13.00;71.00
19622;DHT22;9958;33.196;-97.114;2023-02-15T07:31:06;13.00;71.10
19622;DHT22;9958;33.196;-97.114;2023-02-15T07:33:35;13.00;71.00
19622;DHT22;9958;33.196;-97.114;2023-02-15T07:36:04;13.00;71.00
19622;DHT22;9958;33.196;-97.114;2023-02-15T07:38:34;13.00;71.00
19622;DHT22;9958;33.196;-97.114;2023-02-15T07:41:04;13.00;70.90
19622;DHT22;9958;33.196;-97.114;2023-02-15T07:43:35;13.00;71.00
19622;DHT22;9958;33.196;-97.114;2023-02-15T07:46:06;13.00;70.90
19622;DHT22;9958;33.196;-97.114;2023-02-15T07:48:35;13.00;71.00
19622;DHT22;9958;33.196;-97.114;2023-02-15T07:51:06;13.00;71.20
19622;DHT22;9958;33.196;-97.114;2023-02-15T07:53:36;13.00;71.30
19622;DHT22;9958;33.196;-97.114;2023-02-15T07:56:05;13.00;71.00
19622;DHT22;9958;33.196;-97.114;2023-02-15T07:58:36;13.00;71.80
19622;DHT22;9958;33.196;-97.114;2023-02-15T08:01:21;13.00;72.20
19622;DHT22;9958;33.196;-97.114;2023-02-15T08:03:50;12.90;72.10
19622;DHT22;9958;33.196;-97.114;2023-02-15T08:06:18;12.90;71.70
19622;DHT22;9958;33.196;-97.114;2023-02-15T08:08:46;12.90;72.20
19622;DHT22;9958;33.196;-97.114;2023-02-15T08:11:17;12.90;72.10
19622;DHT22;9958;33.196;-97.114;2023-02-15T08:14:06;12.80;72.00
19622;DHT22;9958;33.196;-97.114;2023-02-15T08:16:36;12.80;71.60
19622;DHT22;9958;33.196;-97.114;2023-02-15T08:19:06;12.80;72.40
19622;DHT22;9958;33.196;-97.114;2023-02-15T08:21:35;12.80;71.90
19622;DHT22;9958;33.196;-97.114;2023-02-15T08:24:05;12.80;71.60
19622;DHT22;9958;33.196;-97.114;2023-02-15T08:26:34;12.80;71.50
19622;DHT22;9958;33.196;-97.114;2023-02-15T08:29:04;12.70;72.00
19622;DHT22;9958;33.196;-97.114;2023-02-15T08:31:34;12.80;72.70
19622;DHT22;9958;33.196;-97.114;2023-02-15T08:34:04;12.70;72.80
19622;DHT22;9958;33.196;-97.114;2023-02-15T08:36:32;12.70;73.30
19622;DHT22;9958;33.196;-97.114;2023-02-15T08:39:03;12.70;73.30
19622;DHT22;9958;33.196;-97.114;2023-02-15T08:41:33;12.70;73.40
19622;DHT22;9958;33.196;-97.114;2023-02-15T08:44:05;12.60;73.10
19622;DHT22;9958;33.196;-97.114;2023-02-15T08:46:36;12.60;72.90
19622;DHT22;9958;33.196;-97.114;2023-02-15T08:49:05;12.60;73.20
19622;DHT22;9958;33.196;-97.114;2023-02-15T08:51:35;12.60;73.20
19622;DHT22;9958;33.196;-97.114;2023-02-15T08:54:06;12.60;73.10
19622;DHT22;9958;33.196;-97.114;2023-02-15T08:56:36;12.50;72.60
19622;DHT22;9958;33.196;-97.114;2023-02-15T08:59:10;12.60;72.50
19622;DHT22;9958;33.196;-97.114;2023-02-15T09:01:39;12.50;72.80
19622;DHT22;9958;33.196;-97.114;2023-02-15T09:04:08;12.50;72.50
19622;DHT22;9958;33.196;-97.114;2023-02-15T09:06:37;12.50;71.80
19622;DHT22;9958;33.196;-97.114;2023-02-15T09:09:06;12.50;72.30
19622;DHT22;9958;33.196;-97.114;2023-02-15T09:11:36;12.50;72.90
19622;DHT22;9958;33.196;-97.114;2023-02-15T09:14:08;12.50;73.10
19622;DHT22;9958;33.196;-97.114;2023-02-15T09:16:38;12.50;73.40
19622;DHT22;9958;33.196;-97.114;2023-02-15T09:19:06;12.50;73.90
19622;DHT22;9958;33.196;-97.114;2023-02-15T09:21:37;12.50;74.10
19622;DHT22;9958;33.196;-97.114;2023-02-15T09:24:12;12.40;74.00
19622;DHT22;9958;33.196;-97.114;2023-02-15T09:26:41;12.40;74.00
19622;DHT22;9958;33.196;-97.114;2023-02-15T09:29:12;12.40;73.90
19622;DHT22;9958;33.196;-97.114;2023-02-15T09:31:42;12.40;74.00
19622;DHT22;9958;33.196;-97.114;2023-02-15T09:34:11;12.30;73.90
19622;DHT22;9958;33.196;-97.114;2023-02-15T09:36:40;12.30;73.90
19622;DHT22;9958;33.196;-97.114;2023-02-15T09:39:11;12.30;73.90
19622;DHT22;9958;33.196;-97.114;2023-02-15T09:45:09;12.20;74.70
19622;DHT22;9958;33.196;-97.114;2023-02-15T09:50:56;12.10;75.70
19622;DHT22;9958;33.196;-97.114;2023-02-15T09:53:38;12.10;75.20
19622;DHT22;9958;33.196;-97.114;2023-02-15T09:56:14;12.00;75.10
19622;DHT22;9958;33.196;-97.114;2023-02-15T09:58:49;11.90;74.90
19622;DHT22;9958;33.196;-97.114;2023-02-15T10:01:28;11.90;76.10
19622;DHT22;9958;33.196;-97.114;2023-02-15T10:04:13;11.80;75.80
19622;DHT22;9958;33.196;-97.114;2023-02-15T10:06:57;11.70;75.90
19622;DHT22;9958;33.196;-97.114;2023-02-15T10:09:54;11.70;77.00
19622;DHT22;9958;33.196;-97.114;2023-02-15T10:12:57;11.60;78.10
19622;DHT22;9958;33.196;-97.114;2023-02-15T10:15:41;11.50;77.70
19622;DHT22;9958;33.196;-97.114;2023-02-15T10:21:32;11.30;78.50
19622;DHT22;9958;33.196;-97.114;2023-02-15T10:24:25;11.20;78.10
19622;DHT22;9958;33.196;-97.114;2023-02-15T10:26:58;11.20;79.50
19622;DHT22;9958;33.196;-97.114;2023-02-15T10:29:34;11.10;81.80
19622;DHT22;9958;33.196;-97.114;2023-02-15T10:32:13;11.00;80.90
19622;DHT22;9958;33.196;-97.114;2023-02-15T10:34:49;10.90;82.30
19622;DHT22;9958;33.196;-97.114;2023-02-15T10:37:31;10.80;82.60
19622;DHT22;9958;33.196;-97.114;2023-02-15T10:40:07;10.70;83.20
19622;DHT22;9958;33.196;-97.114;2023-02-15T10:42:46;10.60;82.90
19622;DHT22;9958;33.196;-97.114;2023-02-15T10:45:24;10.50;83.10
19622;DHT22;9958;33.196;-97.114;2023-02-15T10:48:15;10.40;84.70
19622;DHT22;9958;33.196;-97.114;2023-02-15T10:50:48;10.40;84.60
19622;DHT22;9958;33.196;-97.114;2023-02-15T10:56:12;10.20;86.00
19622;DHT22;9958;33.196;-97.114;2023-02-15T10:58:57;10.20;86.80
19622;DHT22;9958;33.196;-97.114;2023-02-15T11:01:34;10.10;88.70
19622;DHT22;9958;33.196;-97.114;2023-02-15T11:04:45;10.00;88.60
19622;DHT22;9958;33.196;-97.114;2023-02-15T11:07:17;10.00;88.40
19622;DHT22;9958;33.196;-97.114;2023-02-15T11:09:51;9.90;89.60
19622;DHT22;9958;33.196;-97.114;2023-02-15T11:12:24;9.90;89.90
19622;DHT22;9958;33.196;-97.114;2023-02-15T11:14:58;9.80;90.80
19622;DHT22;9958;33.196;-97.114;2023-02-15T11:17:30;9.80;91.30
19622;DHT22;9958;33.196;-97.114;2023-02-15T11:20:08;9.70;91.00
19622;DHT22;9958;33.196;-97.114;2023-02-15T11:22:43;9.60;91.30
19622;DHT22;9958;33.196;-97.114;2023-02-15T11:25:19;9.60;91.30
19622;DHT22;9958;33.196;-97.114;2023-02-15T11:27:49;9.50;91.50
19622;DHT22;9958;33.196;-97.114;2023-02-15T11:30:21;9.50;92.20
19622;DHT22;9958;33.196;-97.114;2023-02-15T11:32:51;9.50;92.40
19622;DHT22;9958;33.196;-97.114;2023-02-15T11:35:25;9.40;92.20
19622;DHT22;9958;33.196;-97.114;2023-02-15T11:38:01;9.40;92.50
19622;DHT22;9958;33.196;-97.114;2023-02-15T11:40:35;9.30;92.80
19622;DHT22;9958;33.196;-97.114;2023-02-15T11:43:06;9.30;93.30
19622;DHT22;9958;33.196;-97.114;2023-02-15T11:45:41;9.30;93.50
19622;DHT22;9958;33.196;-97.114;2023-02-15T11:48:12;9.30;93.90
19622;DHT22;9958;33.196;-97.114;2023-02-15T11:50:44;9.30;94.20
19622;DHT22;9958;33.196;-97.114;2023-02-15T11:53:15;9.20;94.20
19622;DHT22;9958;33.196;-97.114;2023-02-15T11:55:46;9.20;94.00
19622;DHT22;9958;33.196;-97.114;2023-02-15T11:58:25;9.30;94.10
19622;DHT22;9958;33.196;-97.114;2023-02-15T12:01:00;9.30;94.00
19622;DHT22;9958;33.196;-97.114;2023-02-15T12:03:44;9.30;93.70
19622;DHT22;9958;33.196;-97.114;2023-02-15T12:06:21;9.40;93.30
19622;DHT22;9958;33.196;-97.114;2023-02-15T12:08:55;9.40;93.50
19622;DHT22;9958;33.196;-97.114;2023-02-15T12:11:32;9.50;93.50
19622;DHT22;9958;33.196;-97.114;2023-02-15T12:14:02;9.50;93.40
19622;DHT22;9958;33.196;-97.114;2023-02-15T12:16:34;9.50;93.40
19622;DHT22;9958;33.196;-97.114;2023-02-15T12:19:24;9.60;93.50
19622;DHT22;9958;33.196;-97.114;2023-02-15T12:21:55;9.60;93.40
19622;DHT22;9958;33.196;-97.114;2023-02-15T12:24:27;9.60;94.00
19622;DHT22;9958;33.196;-97.114;2023-02-15T12:27:01;9.60;94.00
19622;DHT22;9958;33.196;-97.114;2023-02-15T12:29:34;9.60;93.40
19622;DHT22;9958;33.196;-97.114;2023-02-15T12:32:04;9.60;93.40
19622;DHT22;9958;33.196;-97.114;2023-02-15T12:34:37;9.60;93.40
19622;DHT22;9958;33.196;-97.114;2023-02-15T12:37:16;9.50;93.10
19622;DHT22;9958;33.196;-97.114;2023-02-15T12:39:53;9.60;93.30
19622;DHT22;9958;33.196;-97.114;2023-02-15T12:42:24;9.50;93.10
19622;DHT22;9958;33.196;-97.114;2023-02-15T12:45:01;9.50;93.40
19622;DHT22;9958;33.196;-97.114;2023-02-15T12:47:31;9.50;93.40
19622;DHT22;9958;33.196;-97.114;2023-02-15T12:50:08;9.40;93.30
19622;DHT22;9958;33.196;-97.114;2023-02-15T12:52:44;9.40;93.70
19622;DHT22;9958;33.196;-97.114;2023-02-15T12:55:24;9.40;93.80
19622;DHT22;9958;33.196;-97.114;2023-02-15T12:58:08;9.40;94.20
19622;DHT22;9958;33.196;-97.114;2023-02-15T13:00:37;9.30;94.40
19622;DHT22;9958;33.196;-97.114;2023-02-15T13:03:14;9.30;94.50
19622;DHT22;9958;33.196;-97.114;2023-02-15T13:05:45;9.30;95.00
19622;DHT22;9958;33.196;-97.114;2023-02-15T13:08:16;9.20;95.20
19622;DHT22;9958;33.196;-97.114;2023-02-15T13:10:54;9.20;95.30
19622;DHT22;9958;33.196;-97.114;2023-02-15T13:13:26;9.20;95.70
19622;DHT22;9958;33.196;-97.114;2023-02-15T13:15:58;9.20;95.90
19622;DHT22;9958;33.196;-97.114;2023-02-15T13:18:31;9.20;96.00
19622;DHT22;9958;33.196;-97.114;2023-02-15T13:21:06;9.10;95.90
19622;DHT22;9958;33.196;-97.114;2023-02-15T13:23:38;9.20;95.70
19622;DHT22;9958;33.196;-97.114;2023-02-15T13:26:13;9.20;95.70
19622;DHT22;9958;33.196;-97.114;2023-02-15T13:28:46;9.20;95.80
19622;DHT22;9958;33.196;-97.114;2023-02-15T13:31:17;9.20;95.80
19622;DHT22;9958;33.196;-97.114;2023-02-15T13:33:49;9.20;95.60
19622;DHT22;9958;33.196;-97.114;2023-02-15T13:36:23;9.30;95.60
19622;DHT22;9958;33.196;-97.114;2023-02-15T13:39:03;9.30;95.40
19622;DHT22;9958;33.196;-97.114;2023-02-15T13:41:50;9.30;95.30
19622;DHT22;9958;33.196;-97.114;2023-02-15T13:44:38;9.40;95.20
19622;DHT22;9958;33.196;-97.114;2023-02-15T13:47:17;9.50;95.50
19622;DHT22;9958;33.196;-97.114;2023-02-15T13:50:03;9.60;95.50
19622;DHT22;9958;33.196;-97.114;2023-02-15T13:52:41;9.70;96.20
19622;DHT22;9958;33.196;-97.114;2023-02-15T13:55:32;9.80;96.70
19622;DHT22;9958;33.196;-97.114;2023-02-15T13:58:33;10.00;96.20
19622;DHT22;9958;33.196;-97.114;2023-02-15T14:01:13;10.20;95.90
19622;DHT22;9958;33.196;-97.114;2023-02-15T14:06:58;10.60;93.90
19622;DHT22;9958;33.196;-97.114;2023-02-15T14:09:40;10.80;93.50
19622;DHT22;9958;33.196;-97.114;2023-02-15T14:12:25;11.00;92.30
19622;DHT22;9958;33.196;-97.114;2023-02-15T14:15:18;11.30;92.00
19622;DHT22;9958;33.196;-97.114;2023-02-15T14:17:59;11.50;91.80
19622;DHT22;9958;33.196;-97.114;2023-02-15T14:20:41;11.70;90.80
19622;DHT22;9958;33.196;-97.114;2023-02-15T14:23:16;11.90;90.20
19622;DHT22;9958;33.196;-97.114;2023-02-15T14:25:57;12.10;90.30
19622;DHT22;9958;33.196;-97.114;2023-02-15T14:28:33;12.20;89.00
19622;DHT22;9958;33.196;-97.114;2023-02-15T14:31:08;12.40;88.40
19622;DHT22;9958;33.196;-97.114;2023-02-15T14:33:40;12.50;87.00
19622;DHT22;9958;33.196;-97.114;2023-02-15T14:36:13;12.60;87.30
19622;DHT22;9958;33.196;-97.114;2023-02-15T14:38:52;12.80;86.30
19622;DHT22;9958;33.196;-97.114;2023-02-15T14:41:28;12.90;85.50
19622;DHT22;9958;33.196;-97.114;2023-02-15T14:44:04;12.90;85.20
19622;DHT22;9958;33.196;-97.114;2023-02-15T14:46:38;13.00;85.70
19622;DHT22;9958;33.196;-97.114;2023-02-15T14:49:12;13.10;85.00
19622;DHT22;9958;33.196;-97.114;2023-02-15T14:52:02;13.20;84.70
19622;DHT22;9958;33.196;-97.114;2023-02-15T14:57:37;13.50;83.90
19622;DHT22;9958;33.196;-97.114;2023-02-15T15:03:20;13.80;83.40
19622;DHT22;9958;33.196;-97.114;2023-02-15T15:05:52;14.00;82.70
19622;DHT22;9958;33.196;-97.114;2023-02-15T15:08:31;14.20;81.20
19622;DHT22;9958;33.196;-97.114;2023-02-15T15:13:59;14.50;81.20
19622;DHT22;9958;33.196;-97.114;2023-02-15T15:16:49;14.60;80.30
19622;DHT22;9958;33.196;-97.114;2023-02-15T15:22:35;15.00;80.20
19622;DHT22;9958;33.196;-97.114;2023-02-15T15:25:08;15.10;79.90
19622;DHT22;9958;33.196;-97.114;2023-02-15T15:27:46;15.30;80.10
19622;DHT22;9958;33.196;-97.114;2023-02-15T15:30:48;15.40;79.30
19622;DHT22;9958;33.196;-97.114;2023-02-15T15:37:09;15.80;80.30
19622;DHT22;9958;33.196;-97.114;2023-02-15T15:43:30;16.10;78.90
19622;DHT22;9958;33.196;-97.114;2023-02-15T15:46:13;16.30;79.30
19622;DHT22;9958;33.196;-97.114;2023-02-15T15:48:48;16.50;79.80
19622;DHT22;9958;33.196;-97.114;2023-02-15T15:51:19;16.60;80.50
19622;DHT22;9958;33.196;-97.114;2023-02-15T15:53:49;16.80;81.40
19622;DHT22;9958;33.196;-97.114;2023-02-15T15:56:22;16.90;81.50
19622;DHT22;9958;33.196;-97.114;2023-02-15T15:58:54;17.10;82.00
19622;DHT22;9958;33.196;-97.114;2023-02-15T16:01:28;17.20;82.30
19622;DHT22;9958;33.196;-97.114;2023-02-15T16:03:58;17.40;83.00
19622;DHT22;9958;33.196;-97.114;2023-02-15T16:06:33;17.60;84.70
19622;DHT22;9958;33.196;-97.114;2023-02-15T16:09:12;17.70;83.50
19622;DHT22;9958;33.196;-97.114;2023-02-15T16:11:40;17.90;83.60
19622;DHT22;9958;33.196;-97.114;2023-02-15T16:14:16;18.10;83.10
19622;DHT22;9958;33.196;-97.114;2023-02-15T16:16:53;18.30;84.00
19622;DHT22;9958;33.196;-97.114;2023-02-15T16:19:24;18.40;84.80
19622;DHT22;9958;33.196;-97.114;2023-02-15T16:21:54;18.60;85.20
19622;DHT22;9958;33.196;-97.114;2023-02-15T16:24:39;18.80;84.60
19622;DHT22;9958;33.196;-97.114;2023-02-15T16:27:33;18.90;84.00
19622;DHT22;9958;33.196;-97.114;2023-02-15T16:30:27;19.10;83.30
19622;DHT22;9958;33.196;-97.114;2023-02-15T16:33:05;19.30;82.20
19622;DHT22;9958;33.196;-97.114;2023-02-15T16:35:34;19.40;82.10
19622;DHT22;9958;33.196;-97.114;2023-02-15T16:38:03;19.60;83.20